sensor_id;sensor_type;location;lat;lon;timestamp;pressure;altitude;pressure_sealevel;temperature;humidity
73341;BME280;61578;52.002;5.468;2022-09-17T00:00:02;101265.47;;;10.88;83.57
73341;BME280;61578;52.002;5.468;2022-09-17T00:00:33;101277.44;;;10.95;83.72
73341;BME280;61578;52.002;5.468;2022-09-17T00:01:05;101272.19;;;10.94;83.71
73341;BME280;61578;52.002;5.468;2022-09-17T00:01:37;101265.25;;;10.91;83.31
73341;BME280;61578;52.002;5.468;2022-09-17T00:02:08;101238.84;;;10.74;83.75
73341;BME280;61578;52.002;5.468;2022-09-17T00:02:39;101275.81;;;10.93;84.26
73341;BME280;61578;52.002;5.468;2022-09-17T00:03:12;101274.09;;;10.92;83.58
73341;BME280;61578;52.002;5.468;2022-09-17T00:03:43;101251.88;;;10.79;83.22
73341;BME280;61578;52.002;5.468;2022-09-17T00:04:14;101274.28;;;10.89;83.12
73341;BME280;61578;52.002;5.468;2022-09-17T00:04:47;101245.38;;;10.68;83.41
73341;BME280;61578;52.002;5.468;2022-09-17T00:05:18;101278.75;;;10.88;83.40
73341;BME280;61578;52.002;5.468;2022-09-17T00:05:48;101252.50;;;10.68;83.53
73341;BME280;61578;52.002;5.468;2022-09-17T00:06:20;101279.84;;;10.84;83.61
73341;BME280;61578;52.002;5.468;2022-09-17T00:06:53;101279.09;;;10.82;83.75
73341;BME280;61578;52.002;5.468;2022-09-17T00:07:23;101272.34;;;10.77;83.15
73341;BME280;61578;52.002;5.468;2022-09-17T00:07:54;101260.84;;;10.76;83.49
73341;BME280;61578;52.002;5.468;2022-09-17T00:08:25;101264.38;;;10.77;83.91
73341;BME280;61578;52.002;5.468;2022-09-17T00:08:55;101272.25;;;10.78;84.14
73341;BME280;61578;52.002;5.468;2022-09-17T00:09:26;101244.94;;;10.60;83.23
73341;BME280;61578;52.002;5.468;2022-09-17T00:09:57;101238.38;;;10.52;83.30
73341;BME280;61578;52.002;5.468;2022-09-17T00:10:28;101276.09;;;10.73;83.32
73341;BME280;61578;52.002;5.468;2022-09-17T00:11:14;101288.28;;;10.77;83.95
73341;BME280;61578;52.002;5.468;2022-09-17T00:11:47;101275.84;;;10.77;83.51
73341;BME280;61578;52.002;5.468;2022-09-17T00:12:17;101285.63;;;10.77;83.61
73341;BME280;61578;52.002;5.468;2022-09-17T00:12:48;101279.44;;;10.76;84.40
73341;BME280;61578;52.002;5.468;2022-09-17T00:13:19;101231.78;;;10.43;83.39
73341;BME280;61578;52.002;5.468;2022-09-17T00:13:51;101253.00;;;10.59;83.76
73341;BME280;61578;52.002;5.468;2022-09-17T00:14:23;101266.72;;;10.67;83.13
73341;BME280;61578;52.002;5.468;2022-09-17T00:14:54;101284.84;;;10.75;83.63
73341;BME280;61578;52.002;5.468;2022-09-17T00:15:24;101288.44;;;10.74;83.25
73341;BME280;61578;52.002;5.468;2022-09-17T00:15:55;101278.19;;;10.67;83.55
73341;BME280;61578;52.002;5.468;2022-09-17T00:16:29;101290.25;;;10.73;83.16
73341;BME280;61578;52.002;5.468;2022-09-17T00:17:10;101221.63;;;10.36;84.00
73341;BME280;61578;52.002;5.468;2022-09-17T00:17:41;101257.28;;;10.61;83.63
73341;BME280;61578;52.002;5.468;2022-09-17T00:18:14;101253.09;;;10.57;83.43
73341;BME280;61578;52.002;5.468;2022-09-17T00:18:44;101237.78;;;10.47;83.86
73341;BME280;61578;52.002;5.468;2022-09-17T00:19:18;101280.06;;;10.65;84.02
73341;BME280;61578;52.002;5.468;2022-09-17T00:19:52;101281.41;;;10.73;83.13
73341;BME280;61578;52.002;5.468;2022-09-17T00:20:24;101243.44;;;10.41;83.97
73341;BME280;61578;52.002;5.468;2022-09-17T00:20:55;101256.00;;;10.53;83.58
73341;BME280;61578;52.002;5.468;2022-09-17T00:21:27;101247.34;;;10.49;82.93
73341;BME280;61578;52.002;5.468;2022-09-17T00:21:58;101290.25;;;10.73;83.20
73341;BME280;61578;52.002;5.468;2022-09-17T00:22:29;101291.97;;;10.74;83.11
73341;BME280;61578;52.002;5.468;2022-09-17T00:22:59;101285.78;;;10.74;84.02
73341;BME280;61578;52.002;5.468;2022-09-17T00:23:30;101287.59;;;10.73;84.64
73341;BME280;61578;52.002;5.468;2022-09-17T00:24:04;101265.59;;;10.55;83.83
73341;BME280;61578;52.002;5.468;2022-09-17T00:24:35;101274.06;;;10.62;83.59
73341;BME280;61578;52.002;5.468;2022-09-17T00:25:06;101280.22;;;10.62;83.19
73341;BME280;61578;52.002;5.468;2022-09-17T00:25:42;101278.03;;;10.55;83.51
73341;BME280;61578;52.002;5.468;2022-09-17T00:26:14;101294.00;;;10.69;84.37
73341;BME280;61578;52.002;5.468;2022-09-17T00:26:46;101296.66;;;10.69;84.45
73341;BME280;61578;52.002;5.468;2022-09-17T00:27:17;101294.13;;;10.67;84.90
73341;BME280;61578;52.002;5.468;2022-09-17T00:27:48;101289.13;;;10.61;84.74
73341;BME280;61578;52.002;5.468;2022-09-17T00:28:18;101297.78;;;10.65;84.83
73341;BME280;61578;52.002;5.468;2022-09-17T00:28:51;101282.47;;;10.54;83.78
73341;BME280;61578;52.002;5.468;2022-09-17T00:29:23;101290.06;;;10.60;84.03
73341;BME280;61578;52.002;5.468;2022-09-17T00:29:53;101255.84;;;10.40;83.84
73341;BME280;61578;52.002;5.468;2022-09-17T00:30:24;101280.69;;;10.55;83.91
73341;BME280;61578;52.002;5.468;2022-09-17T00:30:55;101279.66;;;10.57;84.38
73341;BME280;61578;52.002;5.468;2022-09-17T00:31:28;101267.84;;;10.47;83.76
73341;BME280;61578;52.002;5.468;2022-09-17T00:31:59;101275.28;;;10.56;84.11
73341;BME280;61578;52.002;5.468;2022-09-17T00:32:30;101261.31;;;10.53;83.89
73341;BME280;61578;52.002;5.468;2022-09-17T00:33:00;101248.22;;;10.50;83.90
73341;BME280;61578;52.002;5.468;2022-09-17T00:33:31;101275.88;;;10.61;83.27
73341;BME280;61578;52.002;5.468;2022-09-17T00:34:03;101302.91;;;10.84;83.50
73341;BME280;61578;52.002;5.468;2022-09-17T00:34:35;101299.22;;;10.86;83.32
73341;BME280;61578;52.002;5.468;2022-09-17T00:35:06;101284.69;;;10.78;82.98
73341;BME280;61578;52.002;5.468;2022-09-17T00:35:37;101216.97;;;10.39;83.31
73341;BME280;61578;52.002;5.468;2022-09-17T00:36:08;101287.81;;;10.84;83.80
73341;BME280;61578;52.002;5.468;2022-09-17T00:36:38;101302.28;;;10.94;84.52
73341;BME280;61578;52.002;5.468;2022-09-17T00:37:09;101279.00;;;10.84;83.84
73341;BME280;61578;52.002;5.468;2022-09-17T00:37:40;101304.00;;;10.95;83.46
73341;BME280;61578;52.002;5.468;2022-09-17T00:38:10;101300.47;;;10.95;83.74
73341;BME280;61578;52.002;5.468;2022-09-17T00:38:41;101295.16;;;10.95;83.05
73341;BME280;61578;52.002;5.468;2022-09-17T00:39:12;101253.50;;;10.65;84.00
73341;BME280;61578;52.002;5.468;2022-09-17T00:39:44;101299.78;;;10.91;83.58
73341;BME280;61578;52.002;5.468;2022-09-17T00:40:16;101286.19;;;10.82;83.18
73341;BME280;61578;52.002;5.468;2022-09-17T00:40:47;101304.34;;;10.89;82.88
73341;BME280;61578;52.002;5.468;2022-09-17T00:41:20;101295.63;;;10.87;83.08
73341;BME280;61578;52.002;5.468;2022-09-17T00:41:51;101267.41;;;10.55;83.06
73341;BME280;61578;52.002;5.468;2022-09-17T00:42:22;101299.13;;;10.88;82.87
73341;BME280;61578;52.002;5.468;2022-09-17T00:42:53;101300.94;;;10.87;83.72
73341;BME280;61578;52.002;5.468;2022-09-17T00:43:43;101305.41;;;10.87;83.32
73341;BME280;61578;52.002;5.468;2022-09-17T00:45:23;101299.38;;;10.83;83.44
73341;BME280;61578;52.002;5.468;2022-09-17T00:45:54;101284.84;;;10.75;84.12
73341;BME280;61578;52.002;5.468;2022-09-17T00:46:39;101298.63;;;10.81;83.63
73341;BME280;61578;52.002;5.468;2022-09-17T00:48:02;101289.38;;;10.73;82.99
73341;BME280;61578;52.002;5.468;2022-09-17T00:48:34;101265.59;;;10.55;83.93
73341;BME280;61578;52.002;5.468;2022-09-17T00:49:20;101263.59;;;10.59;84.61
73341;BME280;61578;52.002;5.468;2022-09-17T00:50:06;101304.78;;;10.82;84.16
73341;BME280;61578;52.002;5.468;2022-09-17T00:50:43;101297.34;;;10.73;84.45
73341;BME280;61578;52.002;5.468;2022-09-17T00:51:18;101293.59;;;10.77;83.97
73341;BME280;61578;52.002;5.468;2022-09-17T00:52:02;101306.41;;;10.84;83.63
73341;BME280;61578;52.002;5.468;2022-09-17T00:52:43;101296.16;;;10.78;84.94
73341;BME280;61578;52.002;5.468;2022-09-17T00:53:21;101316.03;;;10.87;84.64
73341;BME280;61578;52.002;5.468;2022-09-17T00:53:52;101291.72;;;10.79;83.82
73341;BME280;61578;52.002;5.468;2022-09-17T00:54:24;101308.06;;;10.87;83.27
73341;BME280;61578;52.002;5.468;2022-09-17T00:55:06;101263.59;;;10.59;83.83
73341;BME280;61578;52.002;5.468;2022-09-17T00:55:51;101317.22;;;10.81;83.55
73341;BME280;61578;52.002;5.468;2022-09-17T00:56:31;101290.53;;;10.68;84.16
73341;BME280;61578;52.002;5.468;2022-09-17T00:57:05;101301.63;;;10.75;83.50
73341;BME280;61578;52.002;5.468;2022-09-17T00:57:36;101301.88;;;10.70;83.39
73341;BME280;61578;52.002;5.468;2022-09-17T00:58:12;101306.78;;;10.78;84.08
73341;BME280;61578;52.002;5.468;2022-09-17T00:58:46;101305.94;;;10.78;83.80
73341;BME280;61578;52.002;5.468;2022-09-17T00:59:19;101301.81;;;10.72;83.48
73341;BME280;61578;52.002;5.468;2022-09-17T00:59:52;101303.44;;;10.75;83.92
73341;BME280;61578;52.002;5.468;2022-09-17T01:00:24;101304.28;;;10.75;83.38
73341;BME280;61578;52.002;5.468;2022-09-17T01:00:56;101284.78;;;10.60;83.77
73341;BME280;61578;52.002;5.468;2022-09-17T01:01:28;101271.09;;;10.52;83.34
73341;BME280;61578;52.002;5.468;2022-09-17T01:01:59;101255.59;;;10.45;83.77
73341;BME280;61578;52.002;5.468;2022-09-17T01:02:30;101279.75;;;10.56;84.10
73341;BME280;61578;52.002;5.468;2022-09-17T01:03:01;101289.13;;;10.61;83.98
73341;BME280;61578;52.002;5.468;2022-09-17T01:03:32;101318.44;;;10.76;83.55
73341;BME280;61578;52.002;5.468;2022-09-17T01:04:03;101312.34;;;10.74;83.91
73341;BME280;61578;52.002;5.468;2022-09-17T01:04:34;101301.97;;;10.69;84.20
73341;BME280;61578;52.002;5.468;2022-09-17T01:05:05;101294.44;;;10.61;83.68
73341;BME280;61578;52.002;5.468;2022-09-17T01:07:55;101314.84;;;10.61;84.56
73341;BME280;61578;52.002;5.468;2022-09-17T01:12:58;101314.50;;;10.51;84.98
73341;BME280;61578;52.002;5.468;2022-09-17T01:16:41;101312.88;;;10.49;85.12
73341;BME280;61578;52.002;5.468;2022-09-17T01:17:42;101316.56;;;10.46;84.72
73341;BME280;61578;52.002;5.468;2022-09-17T01:22:15;101268.56;;;10.02;85.01
73341;BME280;61578;52.002;5.468;2022-09-17T01:22:32;101319.63;;;10.39;85.36
73341;BME280;61578;52.002;5.468;2022-09-17T01:23:57;101323.34;;;10.36;85.20
73341;BME280;61578;52.002;5.468;2022-09-17T01:24:47;101322.56;;;10.34;85.01
73341;BME280;61578;52.002;5.468;2022-09-17T01:25:22;101307.38;;;10.20;84.85
73341;BME280;61578;52.002;5.468;2022-09-17T01:26:53;101303.94;;;10.18;85.57
73341;BME280;61578;52.002;5.468;2022-09-17T01:28:23;101315.25;;;10.22;85.27
73341;BME280;61578;52.002;5.468;2022-09-17T01:31:01;101312.38;;;10.09;86.05
73341;BME280;61578;52.002;5.468;2022-09-17T01:31:55;101283.44;;;9.89;86.34
73341;BME280;61578;52.002;5.468;2022-09-17T01:33:52;101273.75;;;9.72;86.10
73341;BME280;61578;52.002;5.468;2022-09-17T01:35:04;101309.44;;;9.98;86.13
73341;BME280;61578;52.002;5.468;2022-09-17T01:36:05;101278.34;;;9.69;86.31
73341;BME280;61578;52.002;5.468;2022-09-17T01:37:55;101326.56;;;9.92;85.98
73341;BME280;61578;52.002;5.468;2022-09-17T01:39:06;101333.75;;;9.90;85.98
73341;BME280;61578;52.002;5.468;2022-09-17T01:42:15;101334.94;;;9.85;86.51
73341;BME280;61578;52.002;5.468;2022-09-17T01:46:16;101330.66;;;9.82;86.88
73341;BME280;61578;52.002;5.468;2022-09-17T01:47:23;101333.47;;;9.79;86.76
73341;BME280;61578;52.002;5.468;2022-09-17T01:48:50;101319.03;;;9.68;86.90
73341;BME280;61578;52.002;5.468;2022-09-17T01:49:29;101279.88;;;9.40;86.91
73341;BME280;61578;52.002;5.468;2022-09-17T01:50:08;101339.03;;;9.75;86.73
73341;BME280;61578;52.002;5.468;2022-09-17T01:50:50;101206.31;;;8.95;86.46
73341;BME280;61578;52.002;5.468;2022-09-17T01:51:30;101340.97;;;9.71;86.68
73341;BME280;61578;52.002;5.468;2022-09-17T01:52:11;101311.13;;;9.50;87.41
73341;BME280;61578;52.002;5.468;2022-09-17T01:52:49;101348.13;;;9.69;87.04
73341;BME280;61578;52.002;5.468;2022-09-17T01:54:33;101325.75;;;9.57;87.17
73341;BME280;61578;52.002;5.468;2022-09-17T01:55:14;101325.09;;;9.54;87.02
73341;BME280;61578;52.002;5.468;2022-09-17T01:55:50;101333.50;;;9.62;87.68
73341;BME280;61578;52.002;5.468;2022-09-17T01:56:37;101340.09;;;9.71;87.21
73341;BME280;61578;52.002;5.468;2022-09-17T01:57:30;101314.78;;;9.48;87.31
73341;BME280;61578;52.002;5.468;2022-09-17T01:58:27;101321.31;;;9.58;87.83
73341;BME280;61578;52.002;5.468;2022-09-17T01:59:19;101350.63;;;9.72;87.90
73341;BME280;61578;52.002;5.468;2022-09-17T02:00:49;101320.72;;;9.53;87.10
73341;BME280;61578;52.002;5.468;2022-09-17T02:01:30;101346.53;;;9.67;87.29
73341;BME280;61578;52.002;5.468;2022-09-17T02:02:22;101351.66;;;9.70;87.17
73341;BME280;61578;52.002;5.468;2022-09-17T02:03:06;101317.38;;;9.49;87.17
73341;BME280;61578;52.002;5.468;2022-09-17T02:03:54;101350.97;;;9.66;87.03
73341;BME280;61578;52.002;5.468;2022-09-17T02:04:38;101326.25;;;9.48;87.36
73341;BME280;61578;52.002;5.468;2022-09-17T02:06:16;101279.50;;;9.30;87.34
73341;BME280;61578;52.002;5.468;2022-09-17T02:07:00;101345.66;;;9.66;88.06
73341;BME280;61578;52.002;5.468;2022-09-17T02:07:43;101349.06;;;9.68;88.09
73341;BME280;61578;52.002;5.468;2022-09-17T02:08:23;101343.88;;;9.67;87.94
73341;BME280;61578;52.002;5.468;2022-09-17T02:09:05;101320.47;;;9.57;87.71
73341;BME280;61578;52.002;5.468;2022-09-17T02:10:06;101303.03;;;9.53;88.01
73341;BME280;61578;52.002;5.468;2022-09-17T02:11:04;101305.13;;;9.64;87.73
73341;BME280;61578;52.002;5.468;2022-09-17T02:11:42;101318.75;;;9.74;88.35
73341;BME280;61578;52.002;5.468;2022-09-17T02:12:27;101349.34;;;9.96;88.36
73341;BME280;61578;52.002;5.468;2022-09-17T02:13:13;101263.34;;;9.52;87.48
73341;BME280;61578;52.002;5.468;2022-09-17T02:13:59;101342.63;;;10.07;87.26
73341;BME280;61578;52.002;5.468;2022-09-17T02:14:42;101290.25;;;9.77;87.64
73341;BME280;61578;52.002;5.468;2022-09-17T02:15:23;101264.41;;;9.65;87.46
73341;BME280;61578;52.002;5.468;2022-09-17T02:16:07;101332.44;;;10.15;87.64
73341;BME280;61578;52.002;5.468;2022-09-17T02:16:49;101301.59;;;9.96;87.22
73341;BME280;61578;52.002;5.468;2022-09-17T02:17:33;101341.81;;;10.22;87.85
73341;BME280;61578;52.002;5.468;2022-09-17T02:18:33;101252.69;;;9.69;87.08
73341;BME280;61578;52.002;5.468;2022-09-17T02:19:30;101336.06;;;10.29;86.58
73341;BME280;61578;52.002;5.468;2022-09-17T02:20:05;101338.63;;;10.31;85.95
73341;BME280;61578;52.002;5.468;2022-09-17T02:20:44;101325.03;;;10.21;86.41
73341;BME280;61578;52.002;5.468;2022-09-17T02:23:36;101347.22;;;10.36;85.61
73341;BME280;61578;52.002;5.468;2022-09-17T02:24:25;101342.94;;;10.33;86.11
73341;BME280;61578;52.002;5.468;2022-09-17T02:25:17;101331.34;;;10.19;85.98
73341;BME280;61578;52.002;5.468;2022-09-17T02:26:07;101330.25;;;10.23;85.38
73341;BME280;61578;52.002;5.468;2022-09-17T02:26:47;101313.25;;;10.10;85.54
73341;BME280;61578;52.002;5.468;2022-09-17T02:28:34;101342.41;;;10.27;85.78
73341;BME280;61578;52.002;5.468;2022-09-17T02:29:17;101322.69;;;10.15;85.80
73341;BME280;61578;52.002;5.468;2022-09-17T02:29:55;101335.63;;;10.21;85.45
73341;BME280;61578;52.002;5.468;2022-09-17T02:30:26;101289.44;;;9.92;84.80
73341;BME280;61578;52.002;5.468;2022-09-17T02:30:57;101348.13;;;10.19;85.83
73341;BME280;61578;52.002;5.468;2022-09-17T02:31:28;101338.53;;;10.17;85.01
73341;BME280;61578;52.002;5.468;2022-09-17T02:31:59;101344.84;;;10.14;84.97
73341;BME280;61578;52.002;5.468;2022-09-17T02:32:30;101332.75;;;10.09;85.46
73341;BME280;61578;52.002;5.468;2022-09-17T02:33:05;101347.28;;;10.02;85.13
73341;BME280;61578;52.002;5.468;2022-09-17T02:33:41;101315.97;;;9.92;85.00
73341;BME280;61578;52.002;5.468;2022-09-17T02:34:16;101353.75;;;10.13;85.19
73341;BME280;61578;52.002;5.468;2022-09-17T02:34:48;101241.44;;;9.48;85.53
73341;BME280;61578;52.002;5.468;2022-09-17T02:35:19;101334.09;;;10.00;85.44
73341;BME280;61578;52.002;5.468;2022-09-17T02:35:50;101339.19;;;10.05;85.57
73341;BME280;61578;52.002;5.468;2022-09-17T02:36:21;101303.19;;;9.83;85.69
73341;BME280;61578;52.002;5.468;2022-09-17T02:36:55;101347.66;;;10.11;85.42
73341;BME280;61578;52.002;5.468;2022-09-17T02:37:27;101334.44;;;9.94;85.11
73341;BME280;61578;52.002;5.468;2022-09-17T02:37:59;101343.28;;;10.10;84.83
73341;BME280;61578;52.002;5.468;2022-09-17T02:38:30;101344.41;;;10.06;84.87
73341;BME280;61578;52.002;5.468;2022-09-17T02:39:02;101350.31;;;10.11;85.47
73341;BME280;61578;52.002;5.468;2022-09-17T02:39:34;101342.84;;;10.02;85.37
73341;BME280;61578;52.002;5.468;2022-09-17T02:40:05;101342.00;;;10.02;85.25
73341;BME280;61578;52.002;5.468;2022-09-17T02:41:17;101351.59;;;10.04;84.98
73341;BME280;61578;52.002;5.468;2022-09-17T02:42:21;101349.16;;;10.00;84.86
73341;BME280;61578;52.002;5.468;2022-09-17T02:43:18;101322.06;;;9.77;85.25
73341;BME280;61578;52.002;5.468;2022-09-17T02:47:56;101351.53;;;9.88;85.25
73341;BME280;61578;52.002;5.468;2022-09-17T02:49:23;101352.47;;;9.87;85.49
73341;BME280;61578;52.002;5.468;2022-09-17T02:56:03;101358.66;;;9.71;84.96
73341;BME280;61578;52.002;5.468;2022-09-17T02:57:16;101282.69;;;9.19;85.49
73341;BME280;61578;52.002;5.468;2022-09-17T03:00:48;101361.09;;;9.75;85.50
73341;BME280;61578;52.002;5.468;2022-09-17T03:01:29;101361.09;;;9.75;85.35
73341;BME280;61578;52.002;5.468;2022-09-17T03:02:17;101363.75;;;9.75;85.30
73341;BME280;61578;52.002;5.468;2022-09-17T03:03:01;101326.97;;;9.52;85.04
73341;BME280;61578;52.002;5.468;2022-09-17T03:03:43;101366.47;;;9.74;85.07
73341;BME280;61578;52.002;5.468;2022-09-17T03:04:19;101371.84;;;9.72;85.00
73341;BME280;61578;52.002;5.468;2022-09-17T03:04:54;101360.72;;;9.66;85.36
73341;BME280;61578;52.002;5.468;2022-09-17T03:05:27;101346.91;;;9.59;85.21
73341;BME280;61578;52.002;5.468;2022-09-17T03:05:59;101365.84;;;9.69;85.49
73341;BME280;61578;52.002;5.468;2022-09-17T03:06:30;101359.00;;;9.65;85.25
73341;BME280;61578;52.002;5.468;2022-09-17T03:07:10;101333.34;;;9.48;85.48
73341;BME280;61578;52.002;5.468;2022-09-17T03:07:42;101351.75;;;9.51;85.59
73341;BME280;61578;52.002;5.468;2022-09-17T03:08:13;101368.19;;;9.57;85.14
73341;BME280;61578;52.002;5.468;2022-09-17T03:08:49;101372.31;;;9.63;84.90
73341;BME280;61578;52.002;5.468;2022-09-17T03:09:20;101369.81;;;9.60;85.17
73341;BME280;61578;52.002;5.468;2022-09-17T03:09:51;101378.72;;;9.59;84.65
73341;BME280;61578;52.002;5.468;2022-09-17T03:10:22;101373.34;;;9.60;85.42
73341;BME280;61578;52.002;5.468;2022-09-17T03:10:53;101372.56;;;9.58;85.47
73341;BME280;61578;52.002;5.468;2022-09-17T03:11:23;101359.63;;;9.52;85.85
73341;BME280;61578;52.002;5.468;2022-09-17T03:11:54;101323.47;;;9.34;85.61
73341;BME280;61578;52.002;5.468;2022-09-17T03:12:25;101362.88;;;9.57;86.27
73341;BME280;61578;52.002;5.468;2022-09-17T03:12:56;101365.53;;;9.57;85.85
73341;BME280;61578;52.002;5.468;2022-09-17T03:13:27;101308.34;;;9.19;85.64
73341;BME280;61578;52.002;5.468;2022-09-17T03:13:58;101325.34;;;9.32;85.66
73341;BME280;61578;52.002;5.468;2022-09-17T03:14:29;101363.91;;;9.55;85.59
73341;BME280;61578;52.002;5.468;2022-09-17T03:15:00;101352.00;;;9.46;85.29
73341;BME280;61578;52.002;5.468;2022-09-17T03:15:31;101325.94;;;9.37;85.85
73341;BME280;61578;52.002;5.468;2022-09-17T03:16:02;101363.91;;;9.55;86.31
73341;BME280;61578;52.002;5.468;2022-09-17T03:16:33;101341.47;;;9.45;85.46
73341;BME280;61578;52.002;5.468;2022-09-17T03:17:04;101355.88;;;9.56;85.57
73341;BME280;61578;52.002;5.468;2022-09-17T03:17:34;101350.34;;;9.61;86.10
73341;BME280;61578;52.002;5.468;2022-09-17T03:18:05;101366.16;;;9.63;85.46
73341;BME280;61578;52.002;5.468;2022-09-17T03:18:36;101314.59;;;9.35;85.18
73341;BME280;61578;52.002;5.468;2022-09-17T03:19:07;101364.44;;;9.62;85.58
73341;BME280;61578;52.002;5.468;2022-09-17T03:19:37;101364.59;;;9.58;85.41
73341;BME280;61578;52.002;5.468;2022-09-17T03:20:08;101364.59;;;9.58;85.46
73341;BME280;61578;52.002;5.468;2022-09-17T03:20:39;101349.25;;;9.48;85.39
73341;BME280;61578;52.002;5.468;2022-09-17T03:21:10;101296.72;;;9.21;85.07
73341;BME280;61578;52.002;5.468;2022-09-17T03:21:41;101355.97;;;9.55;85.44
73341;BME280;61578;52.002;5.468;2022-09-17T03:22:12;101334.75;;;9.38;85.69
73341;BME280;61578;52.002;5.468;2022-09-17T03:22:43;101359.69;;;9.51;85.53
73341;BME280;61578;52.002;5.468;2022-09-17T03:23:14;101343.56;;;9.38;85.33
73341;BME280;61578;52.002;5.468;2022-09-17T03:23:45;101327.34;;;9.27;85.33
73341;BME280;61578;52.002;5.468;2022-09-17T03:24:16;101357.53;;;9.42;85.67
73341;BME280;61578;52.002;5.468;2022-09-17T03:24:47;101358.31;;;9.44;86.12
73341;BME280;61578;52.002;5.468;2022-09-17T03:25:17;101356.50;;;9.44;85.90
73341;BME280;61578;52.002;5.468;2022-09-17T03:25:48;101300.78;;;9.11;85.54
73341;BME280;61578;52.002;5.468;2022-09-17T03:26:19;101360.09;;;9.43;85.93
73341;BME280;61578;52.002;5.468;2022-09-17T03:26:50;101324.94;;;9.22;85.38
73341;BME280;61578;52.002;5.468;2022-09-17T03:27:21;101318.31;;;9.14;86.07
73341;BME280;61578;52.002;5.468;2022-09-17T03:27:52;101264.06;;;8.86;86.41
73341;BME280;61578;52.002;5.468;2022-09-17T03:28:23;101335.22;;;9.29;85.69
73341;BME280;61578;52.002;5.468;2022-09-17T03:28:55;101349.72;;;9.39;86.32
73341;BME280;61578;52.002;5.468;2022-09-17T03:29:27;101349.78;;;9.37;85.80
73341;BME280;61578;52.002;5.468;2022-09-17T03:29:58;101281.00;;;8.84;86.29
73341;BME280;61578;52.002;5.468;2022-09-17T03:30:29;101353.41;;;9.36;86.09
73341;BME280;61578;52.002;5.468;2022-09-17T03:30:59;101350.81;;;9.35;85.85
73341;BME280;61578;52.002;5.468;2022-09-17T03:31:30;101319.00;;;9.17;86.61
73341;BME280;61578;52.002;5.468;2022-09-17T03:32:01;101350.03;;;9.33;86.73
73341;BME280;61578;52.002;5.468;2022-09-17T03:32:32;101319.94;;;9.16;86.55
73341;BME280;61578;52.002;5.468;2022-09-17T03:33:03;101308.03;;;9.08;86.20
73341;BME280;61578;52.002;5.468;2022-09-17T03:33:34;101352.06;;;9.28;86.68
73341;BME280;61578;52.002;5.468;2022-09-17T03:34:04;101316.81;;;9.08;86.53
73341;BME280;61578;52.002;5.468;2022-09-17T03:34:35;101343.56;;;9.21;86.80
73341;BME280;61578;52.002;5.468;2022-09-17T03:35:06;101245.94;;;8.62;86.22
73341;BME280;61578;52.002;5.468;2022-09-17T03:35:41;101348.94;;;9.19;86.53
73341;BME280;61578;52.002;5.468;2022-09-17T03:36:12;101323.06;;;9.07;86.46
73341;BME280;61578;52.002;5.468;2022-09-17T03:36:43;101350.66;;;9.20;87.01
73341;BME280;61578;52.002;5.468;2022-09-17T03:37:14;101342.09;;;9.15;86.87
73341;BME280;61578;52.002;5.468;2022-09-17T03:37:44;101339.88;;;9.06;86.91
73341;BME280;61578;52.002;5.468;2022-09-17T03:38:16;101349.19;;;9.15;86.50
73341;BME280;61578;52.002;5.468;2022-09-17T03:38:47;101336.47;;;9.04;86.38
73341;BME280;61578;52.002;5.468;2022-09-17T03:39:17;101349.41;;;9.10;86.69
73341;BME280;61578;52.002;5.468;2022-09-17T03:39:48;101307.53;;;8.82;86.53
73341;BME280;61578;52.002;5.468;2022-09-17T03:40:19;101339.59;;;8.95;87.22
73341;BME280;61578;52.002;5.468;2022-09-17T03:40:57;101354.09;;;9.05;86.85
73341;BME280;61578;52.002;5.468;2022-09-17T03:41:29;101332.84;;;8.88;87.29
73341;BME280;61578;52.002;5.468;2022-09-17T03:42:00;101311.34;;;8.77;87.44
73341;BME280;61578;52.002;5.468;2022-09-17T03:42:30;101332.84;;;8.88;87.19
73341;BME280;61578;52.002;5.468;2022-09-17T03:43:01;101350.84;;;8.99;87.07
73341;BME280;61578;52.002;5.468;2022-09-17T03:43:32;101322.00;;;8.75;86.63
73341;BME280;61578;52.002;5.468;2022-09-17T03:44:04;101356.22;;;8.97;87.11
73341;BME280;61578;52.002;5.468;2022-09-17T03:44:35;101358.94;;;8.96;87.11
73341;BME280;61578;52.002;5.468;2022-09-17T03:45:06;101355.47;;;8.95;86.95
73341;BME280;61578;52.002;5.468;2022-09-17T03:45:37;101340.00;;;8.86;87.11
73341;BME280;61578;52.002;5.468;2022-09-17T03:46:08;101358.25;;;8.92;86.99
73341;BME280;61578;52.002;5.468;2022-09-17T03:46:38;101339.31;;;8.82;86.81
73341;BME280;61578;52.002;5.468;2022-09-17T03:47:09;101350.44;;;8.89;86.66
73341;BME280;61578;52.002;5.468;2022-09-17T03:47:41;101338.59;;;8.79;86.96
73341;BME280;61578;52.002;5.468;2022-09-17T03:48:12;101352.31;;;8.87;87.38
73341;BME280;61578;52.002;5.468;2022-09-17T03:48:43;101350.59;;;8.86;87.00
73341;BME280;61578;52.002;5.468;2022-09-17T03:49:13;101327.66;;;8.68;87.67
73341;BME280;61578;52.002;5.468;2022-09-17T03:49:44;101325.88;;;8.68;87.46
73341;BME280;61578;52.002;5.468;2022-09-17T03:50:15;101309.91;;;8.53;86.86
73341;BME280;61578;52.002;5.468;2022-09-17T03:50:45;101350.84;;;8.81;87.22
73341;BME280;61578;52.002;5.468;2022-09-17T03:51:16;101337.97;;;8.74;86.94
73341;BME280;61578;52.002;5.468;2022-09-17T03:51:47;101225.84;;;8.03;86.81
73341;BME280;61578;52.002;5.468;2022-09-17T03:52:17;101353.56;;;8.80;87.56
73341;BME280;61578;52.002;5.468;2022-09-17T03:52:48;101336.25;;;8.73;87.59
73341;BME280;61578;52.002;5.468;2022-09-17T03:53:19;101356.28;;;8.78;87.16
73341;BME280;61578;52.002;5.468;2022-09-17T03:53:49;101219.97;;;7.96;87.27
73341;BME280;61578;52.002;5.468;2022-09-17T03:54:20;101355.34;;;8.79;86.97
73341;BME280;61578;52.002;5.468;2022-09-17T03:54:51;101357.00;;;8.82;87.28
73341;BME280;61578;52.002;5.468;2022-09-17T03:55:21;101356.19;;;8.80;87.47
73341;BME280;61578;52.002;5.468;2022-09-17T03:55:52;101327.50;;;8.54;86.80